Time;durP1;ratioP1;P1;durP2;ratioP2;P2;SDS_P1;SDS_P2;PMS_P1;PMS_P2;Temp;Humidity;BMP_temperature;BMP_pressure;BME280_temperature;BME280_humidity;BME280_pressure;Samples;Min_cycle;Max_cycle;Signal;HPM_P1;HPM_P2
2022/04/14 00:01:53;;;;;;;13.85;7.72;;;12.10;99.90;;;;;;5154296;27;20031;-77
2022/04/14 00:04:19;;;;;;;;;;;12.20;99.90;;;;;;5137157;27;20474;-77
2022/04/14 00:06:45;;;;;;;12.45;8.10;;;12.20;99.90;;;;;;5136779;27;20021;-77
2022/04/14 00:09:10;;;;;;;14.30;7.63;;;12.20;99.90;;;;;;5153618;27;20061;-77
2022/04/14 00:11:38;;;;;;;17.00;8.60;;;12.20;99.90;;;;;;5145651;27;20027;-77
2022/04/14 00:14:04;;;;;;;16.73;8.98;;;12.20;99.90;;;;;;5133348;27;20038;-76
2022/04/14 00:16:30;;;;;;;;;;;12.20;99.90;;;;;;5116000;27;20035;-77
2022/04/14 00:18:56;;;;;;;13.27;7.78;;;12.20;99.90;;;;;;5133005;27;19915;-78
2022/04/14 00:21:22;;;;;;;13.35;8.10;;;12.10;99.90;;;;;;5133977;27;20034;-76
2022/04/14 00:23:48;;;;;;;16.17;8.77;;;12.10;99.90;;;;;;5153560;27;20453;-78
2022/04/14 00:26:13;;;;;;;14.05;9.00;;;12.00;99.90;;;;;;5133303;27;20501;-77
2022/04/14 00:28:39;;;;;;;15.05;8.45;;;12.00;99.90;;;;;;5132802;27;20053;-77
2022/04/14 00:31:05;;;;;;;15.45;8.60;;;12.00;99.90;;;;;;5115636;27;20054;-77
2022/04/14 00:33:32;;;;;;;14.13;8.30;;;11.90;99.90;;;;;;5115381;27;20690;-77
2022/04/14 00:35:58;;;;;;;16.15;8.73;;;11.90;99.90;;;;;;5115525;27;20114;-78
2022/04/14 00:38:24;;;;;;;14.52;8.95;;;11.90;99.90;;;;;;5132211;27;20043;-76
2022/04/14 00:40:52;;;;;;;14.43;8.57;;;11.90;99.90;;;;;;5132632;27;20409;-77
2022/04/14 00:43:19;;;;;;;12.70;8.05;;;11.90;99.90;;;;;;5132502;27;20043;-78
2022/04/14 00:45:46;;;;;;;17.15;8.27;;;11.80;99.90;;;;;;5115797;27;20646;-77
2022/04/14 00:48:13;;;;;;;12.80;8.45;;;11.80;99.90;;;;;;5132446;27;20038;-77
2022/04/14 00:50:39;;;;;;;14.43;8.25;;;11.80;99.90;;;;;;5149937;27;20038;-78
2022/04/14 00:53:05;;;;;;;13.95;8.27;;;11.70;99.90;;;;;;5153170;27;20106;-76
2022/04/14 00:55:31;;;;;;;16.95;9.07;;;11.70;99.90;;;;;;5152278;27;20038;-77
2022/04/14 00:57:56;;;;;;;20.02;9.25;;;11.70;99.90;;;;;;5127905;27;20034;-78
2022/04/14 01:00:22;;;;;;;14.02;8.75;;;11.60;99.90;;;;;;5150866;27;20082;-77
2022/04/14 01:02:48;;;;;;;17.33;8.55;;;11.60;99.90;;;;;;5132247;27;20034;-77
2022/04/14 01:05:15;;;;;;;16.90;8.25;;;11.60;99.90;;;;;;5131723;27;20039;-77
2022/04/14 01:07:44;;;;;;;13.90;8.35;;;11.60;99.90;;;;;;5132584;27;20061;-77
2022/04/14 01:10:10;;;;;;;14.27;8.35;;;11.50;99.90;;;;;;5117907;27;20435;-77
2022/04/14 01:12:36;;;;;;;14.65;8.65;;;11.50;99.90;;;;;;5136505;27;20037;-78
2022/04/14 01:15:02;;;;;;;13.30;9.02;;;11.50;99.90;;;;;;5136780;27;20152;-78
2022/04/14 01:17:28;;;;;;;15.73;9.45;;;11.40;99.90;;;;;;5136118;27;20038;-77
2022/04/14 01:19:54;;;;;;;16.52;10.27;;;11.40;99.90;;;;;;5136647;27;20046;-77
2022/04/14 01:22:28;;;;;;;16.35;9.18;;;11.40;99.90;;;;;;5143969;27;21418;-77
2022/04/14 01:24:57;;;;;;;14.85;9.50;;;11.30;99.90;;;;;;5157127;27;20038;-78
2022/04/14 01:27:23;;;;;;;15.38;9.70;;;11.30;99.90;;;;;;5156881;27;20045;-77
2022/04/14 01:29:52;;;;;;;13.85;9.13;;;11.30;99.90;;;;;;5157091;27;20030;-77
2022/04/14 01:32:24;;;;;;;15.23;9.45;;;11.20;99.90;;;;;;5156171;27;20051;-77
2022/04/14 01:34:51;;;;;;;17.88;10.60;;;11.20;99.90;;;;;;5157307;27;20030;-76
2022/04/14 01:37:16;;;;;;;17.73;10.40;;;11.10;99.90;;;;;;5156279;27;20061;-76
2022/04/14 01:39:43;;;;;;;13.32;9.45;;;11.10;99.90;;;;;;5120052;27;20030;-77
2022/04/14 01:42:09;;;;;;;16.27;9.70;;;11.10;99.90;;;;;;5136209;27;20034;-77
2022/04/14 01:44:35;;;;;;;16.27;9.25;;;11.10;99.90;;;;;;5135520;27;20057;-77
2022/04/14 01:47:01;;;;;;;15.15;9.98;;;11.10;99.90;;;;;;5135921;27;20035;-76
2022/04/14 01:49:26;;;;;;;16.25;9.38;;;11.10;99.90;;;;;;5135616;27;20061;-76
2022/04/14 01:51:52;;;;;;;17.17;9.43;;;11.10;99.90;;;;;;5135753;27;20042;-76
2022/04/14 01:54:18;;;;;;;18.17;9.73;;;11.00;99.90;;;;;;5135365;27;20121;-77
2022/04/14 01:56:45;;;;;;;17.03;9.77;;;11.00;99.90;;;;;;5118670;27;20287;-77
2022/04/14 01:59:12;;;;;;;17.38;10.52;;;11.00;99.90;;;;;;5136047;27;20292;-77
2022/04/14 02:01:37;;;;;;;;;;;10.90;99.90;;;;;;5118523;27;20107;-77
2022/04/14 02:04:05;;;;;;;16.23;9.75;;;10.90;99.90;;;;;;5118670;27;19915;-77
2022/04/14 02:06:30;;;;;;;15.18;9.95;;;10.90;99.90;;;;;;5135469;27;20363;-76
2022/04/14 02:08:56;;;;;;;15.80;10.20;;;10.90;99.90;;;;;;5135502;27;20966;-77
2022/04/14 02:11:22;;;;;;;14.73;9.60;;;10.90;99.90;;;;;;5117899;27;20035;-77
2022/04/14 02:13:48;;;;;;;;;;;10.90;99.90;;;;;;5136148;27;20037;-77
2022/04/14 02:16:14;;;;;;;16.88;10.63;;;10.90;99.90;;;;;;5118537;27;19919;-76
2022/04/14 02:18:40;;;;;;;14.50;9.43;;;10.90;99.90;;;;;;5135343;27;21221;-77
2022/04/14 02:21:06;;;;;;;18.92;10.10;;;10.90;99.90;;;;;;5135201;27;20034;-77
2022/04/14 02:23:31;;;;;;;17.37;10.90;;;10.80;99.90;;;;;;5151677;27;20125;-76
2022/04/14 02:25:57;;;;;;;17.88;11.20;;;10.80;99.90;;;;;;5150897;27;20046;-77
2022/04/14 02:28:23;;;;;;;20.43;11.97;;;10.80;99.90;;;;;;5134672;27;20409;-77
2022/04/14 02:30:49;;;;;;;18.20;11.57;;;10.70;99.90;;;;;;5100715;27;20308;-76
2022/04/14 02:33:15;;;;;;;15.73;10.85;;;10.60;99.90;;;;;;5154337;27;20137;-77
2022/04/14 02:35:41;;;;;;;19.63;11.68;;;10.60;99.90;;;;;;5138303;27;20045;-76
2022/04/14 02:38:07;;;;;;;18.33;12.60;;;10.60;99.90;;;;;;5155596;27;20042;-77
2022/04/14 02:40:32;;;;;;;22.40;13.02;;;10.60;99.90;;;;;;5137892;27;20117;-77
2022/04/14 02:42:58;;;;;;;20.50;12.68;;;10.50;99.90;;;;;;5155643;27;20504;-77
2022/04/14 02:45:25;;;;;;;19.42;13.27;;;10.50;99.90;;;;;;5154982;27;20505;-78
2022/04/14 02:47:52;;;;;;;22.40;12.98;;;10.40;99.90;;;;;;5155727;27;21419;-77
2022/04/14 02:50:19;;;;;;;21.73;13.55;;;10.40;99.90;;;;;;5138035;27;20129;-77
2022/04/14 02:52:45;;;;;;;21.05;12.88;;;10.40;99.90;;;;;;5148527;27;20044;-77
2022/04/14 02:55:10;;;;;;;22.45;14.10;;;10.40;99.90;;;;;;5117741;27;20478;-77
2022/04/14 02:57:36;;;;;;;25.23;14.38;;;10.30;99.90;;;;;;5134102;27;20039;-77
2022/04/14 03:00:05;;;;;;;21.85;13.68;;;10.30;99.90;;;;;;5117411;27;20074;-77
2022/04/14 03:02:30;;;;;;;21.83;13.77;;;10.30;99.90;;;;;;5133938;27;20070;-76
2022/04/14 03:04:56;;;;;;;23.83;14.38;;;10.30;99.90;;;;;;5152823;27;20073;-77
2022/04/14 03:07:22;;;;;;;25.20;14.57;;;10.20;99.90;;;;;;5117011;27;20038;-76
2022/04/14 03:09:48;;;;;;;25.33;15.10;;;10.20;99.90;;;;;;5117634;27;20107;-76
2022/04/14 03:12:14;;;;;;;25.95;14.48;;;10.20;99.90;;;;;;5134426;27;20287;-77
2022/04/14 03:14:39;;;;;;;22.50;14.57;;;10.10;99.90;;;;;;5129716;27;20038;-77
2022/04/14 03:17:05;;;;;;;27.15;15.02;;;10.10;99.90;;;;;;5155058;27;20057;-77
2022/04/14 03:19:31;;;;;;;23.10;15.18;;;10.10;99.90;;;;;;5154511;27;20065;-77
2022/04/14 03:21:58;;;;;;;23.97;15.80;;;10.10;99.90;;;;;;5154676;27;20541;-77
2022/04/14 03:24:24;;;;;;;24.95;15.90;;;10.00;99.90;;;;;;5129366;27;20327;-77
2022/04/14 03:26:49;;;;;;;22.25;14.90;;;10.00;99.90;;;;;;5152835;27;20027;-77
2022/04/14 03:29:15;;;;;;;27.35;16.63;;;10.00;99.90;;;;;;5140945;27;20090;-77
2022/04/14 03:31:41;;;;;;;25.15;15.82;;;9.90;99.90;;;;;;5141927;27;20142;-78
2022/04/14 03:34:06;;;;;;;28.90;16.80;;;10.10;99.90;;;;;;5133561;27;20034;-77
2022/04/14 03:36:32;;;;;;;28.05;16.73;;;9.90;99.90;;;;;;5141424;27;20038;-77
2022/04/14 03:38:58;;;;;;;28.30;16.38;;;9.90;99.90;;;;;;5120178;27;20035;-78
2022/04/14 03:41:24;;;;;;;30.53;17.20;;;9.80;99.90;;;;;;5153885;27;20044;-76
2022/04/14 03:43:50;;;;;;;27.60;17.88;;;9.80;99.90;;;;;;5154542;27;20198;-77
2022/04/14 03:46:16;;;;;;;36.60;17.83;;;9.80;99.90;;;;;;5136967;27;20042;-76
2022/04/14 03:48:44;;;;;;;28.10;17.23;;;9.80;99.90;;;;;;5154023;27;20511;-77
2022/04/14 03:51:10;;;;;;;32.70;17.50;;;9.70;99.90;;;;;;5172928;27;20034;-76
2022/04/14 03:53:36;;;;;;;29.98;18.23;;;9.60;99.90;;;;;;5153780;27;20049;-78
2022/04/14 03:56:01;;;;;;;30.90;18.58;;;9.60;99.90;;;;;;5148314;27;20046;-77
2022/04/14 03:58:27;;;;;;;34.08;18.23;;;9.60;99.90;;;;;;5133199;27;20107;-77
2022/04/14 04:00:53;;;;;;;30.75;19.65;;;9.60;99.90;;;;;;5116537;27;20039;-77
2022/04/14 04:03:19;;;;;;;29.77;19.23;;;9.60;99.90;;;;;;5116054;27;20077;-77
2022/04/14 04:05:44;;;;;;;33.08;19.25;;;9.60;99.90;;;;;;5133358;27;20280;-77
2022/04/14 04:08:10;;;;;;;32.92;18.83;;;9.60;99.90;;;;;;5139711;27;20462;-77
2022/04/14 04:10:36;;;;;;;30.20;18.85;;;9.50;99.90;;;;;;5136008;27;20488;-77
2022/04/14 04:13:02;;;;;;;29.63;18.35;;;9.60;99.90;;;;;;5153673;27;20045;-78
2022/04/14 04:15:27;;;;;;;34.47;19.63;;;9.50;99.90;;;;;;5153528;27;20022;-78
2022/04/14 04:17:53;;;;;;;32.65;19.92;;;9.50;99.90;;;;;;5134866;27;20367;-78
2022/04/14 04:20:22;;;;;;;32.80;20.13;;;9.50;99.90;;;;;;5116208;27;20070;-77
2022/04/14 04:22:48;;;;;;;38.70;22.00;;;9.50;99.90;;;;;;5115624;27;20280;-78
2022/04/14 04:25:14;;;;;;;38.25;21.60;;;9.50;99.90;;;;;;5115707;27;20038;-77
2022/04/14 04:27:39;;;;;;;38.13;22.17;;;9.50;99.90;;;;;;5144419;27;20038;-78
2022/04/14 04:30:07;;;;;;;38.03;21.85;;;9.40;99.90;;;;;;5153505;27;20367;-78
2022/04/14 04:32:33;;;;;;;34.58;21.25;;;9.40;99.90;;;;;;5135640;27;20050;-77
2022/04/14 04:34:59;;;;;;;;;;;9.40;99.90;;;;;;5154064;27;20560;-77
2022/04/14 04:37:25;;;;;;;37.80;22.65;;;9.40;99.90;;;;;;5153116;27;20285;-77
2022/04/14 04:39:51;;;;;;;35.55;21.83;;;9.40;99.90;;;;;;5153533;27;20038;-79
2022/04/14 04:42:16;;;;;;;33.43;21.33;;;9.30;99.90;;;;;;5153644;27;20046;-79
2022/04/14 04:44:42;;;;;;;34.83;21.87;;;9.30;99.90;;;;;;5134901;27;20287;-78
2022/04/14 04:47:08;;;;;;;39.50;20.90;;;9.30;99.90;;;;;;5146491;27;20280;-78
2022/04/14 04:49:33;;;;;;;41.20;23.93;;;9.30;99.90;;;;;;5115183;27;20117;-79
2022/04/14 04:52:00;;;;;;;36.70;23.83;;;9.30;99.90;;;;;;5130110;27;20030;-77
2022/04/14 04:54:26;;;;;;;40.83;24.95;;;9.30;99.90;;;;;;5115464;27;20038;-78
2022/04/14 04:56:52;;;;;;;37.70;24.83;;;9.20;99.90;;;;;;5115823;27;20419;-77
2022/04/14 04:59:18;;;;;;;35.92;22.85;;;9.20;99.90;;;;;;5131805;27;20122;-77
2022/04/14 05:01:43;;;;;;;41.20;24.70;;;9.20;99.90;;;;;;5131799;27;20496;-77
2022/04/14 05:04:11;;;;;;;43.83;24.90;;;9.20;99.90;;;;;;5115420;27;20039;-77
2022/04/14 05:06:37;;;;;;;39.83;24.35;;;9.20;99.90;;;;;;5115829;27;20283;-77
2022/04/14 05:09:03;;;;;;;;;;;9.10;99.90;;;;;;5114203;27;20490;-77
2022/04/14 05:11:29;;;;;;;47.78;26.17;;;9.10;99.90;;;;;;5151084;27;19919;-76
2022/04/14 05:13:55;;;;;;;39.40;25.55;;;9.10;99.90;;;;;;5116436;27;20046;-77
2022/04/14 05:16:20;;;;;;;45.88;26.90;;;9.10;99.90;;;;;;5132813;27;20091;-77
2022/04/14 05:18:46;;;;;;;42.00;26.05;;;9.10;99.90;;;;;;5098572;27;20506;-78
2022/04/14 05:21:12;;;;;;;45.35;25.80;;;9.20;99.90;;;;;;5115919;27;20414;-77
2022/04/14 05:23:38;;;;;;;43.08;26.05;;;9.20;99.90;;;;;;5132482;27;20039;-77
2022/04/14 05:26:03;;;;;;;43.47;26.40;;;9.20;99.90;;;;;;5132789;27;20039;-77
2022/04/14 05:28:29;;;;;;;52.45;27.30;;;9.20;99.90;;;;;;5115247;27;20098;-77
2022/04/14 05:30:55;;;;;;;44.53;26.90;;;9.30;99.90;;;;;;5132580;27;20053;-77
2022/04/14 05:33:21;;;;;;;46.30;26.90;;;9.30;99.90;;;;;;5139106;27;20053;-77
2022/04/14 05:35:46;;;;;;;43.67;25.88;;;9.40;99.90;;;;;;5153219;27;20059;-78
2022/04/14 05:38:12;;;;;;;47.20;26.35;;;9.50;99.90;;;;;;5153233;27;20100;-77
2022/04/14 05:40:41;;;;;;;41.17;25.13;;;9.50;99.90;;;;;;5153060;27;20447;-77
2022/04/14 05:43:13;;;;;;;41.65;24.63;;;9.60;99.90;;;;;;5136691;27;20038;-76
2022/04/14 05:45:40;;;;;;;42.80;26.38;;;9.70;99.90;;;;;;5153144;27;20042;-77
2022/04/14 05:48:05;;;;;;;42.85;26.83;;;9.80;99.90;;;;;;5153263;27;20053;-77
2022/04/14 05:50:31;;;;;;;49.13;28.10;;;9.90;99.90;;;;;;5135757;27;20035;-77
2022/04/14 05:52:57;;;;;;;48.17;29.10;;;10.10;99.90;;;;;;5153385;27;20101;-77
2022/04/14 05:55:23;;;;;;;44.13;27.63;;;10.20;99.90;;;;;;5154062;27;20094;-77
2022/04/14 05:57:48;;;;;;;46.28;28.10;;;10.20;99.90;;;;;;5139375;27;20469;-76
2022/04/14 06:00:15;;;;;;;44.17;27.03;;;10.20;99.90;;;;;;5139951;27;20396;-77
2022/04/14 06:02:40;;;;;;;46.70;27.40;;;10.30;99.90;;;;;;5156809;27;20279;-77
2022/04/14 06:05:07;;;;;;;44.90;25.83;;;10.30;99.90;;;;;;5157006;27;20046;-77
2022/04/14 06:07:32;;;;;;;42.13;26.88;;;10.40;99.90;;;;;;5156671;27;20049;-77
2022/04/14 06:09:58;;;;;;;45.90;27.85;;;10.50;99.90;;;;;;5157418;27;20034;-78
2022/04/14 06:12:24;;;;;;;46.17;28.13;;;10.60;99.90;;;;;;5139801;27;20125;-78
2022/04/14 06:14:50;;;;;;;49.40;28.30;;;10.60;99.90;;;;;;5139665;27;20291;-77
2022/04/14 06:17:16;;;;;;;;;;;10.70;99.90;;;;;;5157569;27;20102;-78
2022/04/14 06:19:41;;;;;;;47.20;27.45;;;10.90;99.90;;;;;;5156517;27;19914;-78
2022/04/14 06:22:07;;;;;;;45.88;26.83;;;11.00;99.90;;;;;;5156636;27;20069;-77
2022/04/14 06:24:32;;;;;;;42.73;27.03;;;11.20;99.90;;;;;;5156440;27;20485;-77
2022/04/14 06:26:58;;;;;;;40.10;25.47;;;11.50;99.90;;;;;;5156705;27;20291;-78
2022/04/14 06:29:24;;;;;;;43.22;25.90;;;11.70;99.90;;;;;;5156333;27;20065;-76
2022/04/14 06:31:49;;;;;;;38.67;25.57;;;11.80;99.90;;;;;;5138657;27;20043;-77
2022/04/14 06:34:16;;;;;;;43.97;25.45;;;11.90;99.90;;;;;;5156223;27;20054;-77
2022/04/14 06:36:41;;;;;;;36.92;22.92;;;12.00;99.90;;;;;;5138973;27;20044;-77
2022/04/14 06:39:12;;;;;;;38.05;23.60;;;11.90;99.90;;;;;;5139411;27;20023;-77
2022/04/14 06:41:39;;;;;;;38.42;23.52;;;11.90;99.90;;;;;;5123784;27;20039;-77
2022/04/14 06:44:05;;;;;;;35.13;22.45;;;11.90;99.90;;;;;;5135971;27;20505;-77
2022/04/14 06:46:31;;;;;;;35.65;21.73;;;11.90;99.90;;;;;;5135759;27;20083;-77
2022/04/14 06:48:57;;;;;;;33.38;22.08;;;12.00;99.90;;;;;;5135220;27;20490;-77
2022/04/14 06:51:23;;;;;;;35.10;21.67;;;12.00;99.90;;;;;;5135429;27;20078;-77
2022/04/14 06:53:48;;;;;;;32.05;20.23;;;12.20;99.90;;;;;;5135009;27;20038;-77
2022/04/14 06:56:14;;;;;;;31.52;20.92;;;12.40;99.90;;;;;;5118579;27;20328;-76
2022/04/14 06:58:42;;;;;;;30.25;20.92;;;12.80;99.90;;;;;;5119393;27;20042;-77
2022/04/14 07:01:08;;;;;;;29.40;18.17;;;13.20;99.90;;;;;;5156246;27;20397;-77
2022/04/14 07:03:34;;;;;;;27.58;17.15;;;13.90;99.90;;;;;;5155939;27;20103;-77
2022/04/14 07:06:00;;;;;;;28.25;18.15;;;14.20;99.90;;;;;;5155636;27;20034;-77
2022/04/14 07:08:27;;;;;;;24.83;17.17;;;14.80;99.90;;;;;;5119951;27;20124;-77
2022/04/14 07:10:53;;;;;;;26.10;16.63;;;15.20;99.90;;;;;;5155527;27;20521;-77
2022/04/14 07:13:19;;;;;;;22.95;15.13;;;15.40;99.90;;;;;;5155789;27;20038;-77
2022/04/14 07:15:45;;;;;;;24.73;15.65;;;15.80;99.90;;;;;;5155181;27;20097;-77
2022/04/14 07:18:11;;;;;;;26.27;16.08;;;16.00;99.90;;;;;;5155585;27;20038;-77
2022/04/14 07:20:38;;;;;;;25.65;15.40;;;16.00;99.90;;;;;;5155460;27;20374;-76
2022/04/14 07:23:05;;;;;;;19.75;14.38;;;16.40;99.90;;;;;;5138385;27;20042;-77
2022/04/14 07:25:33;;;;;;;21.80;15.30;;;16.60;99.90;;;;;;5137987;27;20074;-77
2022/04/14 07:28:00;;;;;;;20.65;14.00;;;16.80;99.90;;;;;;5155072;27;20038;-77
2022/04/14 07:30:26;;;;;;;18.33;13.35;;;17.10;99.90;;;;;;5155141;27;20039;-77
2022/04/14 07:32:52;;;;;;;;;;;17.10;99.90;;;;;;5155207;27;20046;-77
2022/04/14 07:35:22;;;;;;;19.42;13.57;;;17.10;99.90;;;;;;5155171;27;20334;-76
2022/04/14 07:37:48;;;;;;;18.05;13.40;;;17.40;99.90;;;;;;5134451;27;20512;-77
2022/04/14 07:40:15;;;;;;;18.58;13.73;;;17.70;99.90;;;;;;5117229;27;20121;-78
2022/04/14 07:42:43;;;;;;;19.23;12.90;;;17.90;99.90;;;;;;5134040;27;20042;-77
2022/04/14 07:45:12;;;;;;;18.33;12.95;;;18.20;99.90;;;;;;5134356;27;20039;-77
2022/04/14 07:47:42;;;;;;;19.75;13.68;;;18.20;99.90;;;;;;5134642;27;20485;-76
2022/04/14 07:50:16;;;;;;;21.63;14.85;;;18.50;99.90;;;;;;5134556;27;20040;-77
2022/04/14 07:52:55;;;;;;;20.15;14.98;;;18.70;99.90;;;;;;5134196;27;20378;-77
2022/04/14 07:55:27;;;;;;;20.95;14.13;;;18.50;99.90;;;;;;5116824;27;20043;-78
2022/04/14 07:57:54;;;;;;;21.45;14.63;;;18.40;99.90;;;;;;5134205;27;20121;-77
2022/04/14 08:00:21;;;;;;;19.27;14.60;;;18.60;99.90;;;;;;5116850;27;20050;-77
2022/04/14 08:02:55;;;;;;;20.27;14.05;;;18.50;99.90;;;;;;5133482;27;20121;-77
2022/04/14 08:05:26;;;;;;;21.05;14.88;;;18.50;99.90;;;;;;5133538;27;20051;-77
2022/04/14 08:07:52;;;;;;;19.88;14.88;;;18.90;99.90;;;;;;5116778;27;20467;-76
2022/04/14 08:10:18;;;;;;;17.60;13.95;;;19.60;99.90;;;;;;5133594;27;20126;-76
2022/04/14 08:12:44;;;;;;;19.95;13.50;;;19.60;99.90;;;;;;5116806;27;20339;-77
2022/04/14 08:15:14;;;;;;;18.58;14.27;;;19.90;99.90;;;;;;5117035;27;20043;-77
2022/04/14 08:17:44;;;;;;;17.67;13.35;;;20.10;99.90;;;;;;5133949;27;20046;-77
2022/04/14 08:20:13;;;;;;;18.55;13.88;;;20.20;99.90;;;;;;5133906;27;20038;-77
2022/04/14 08:22:52;;;;;;;19.38;13.90;;;20.50;99.90;;;;;;5133308;27;20099;-77
2022/04/14 08:25:41;;;;;;;20.90;14.07;;;20.50;99.90;;;;;;5113821;27;20035;-77
2022/04/14 08:28:07;;;;;;;17.33;12.88;;;20.20;99.90;;;;;;5116749;27;20043;-77
2022/04/14 08:30:35;;;;;;;16.52;13.40;;;20.00;99.90;;;;;;5133259;27;20053;-76
2022/04/14 08:33:03;;;;;;;16.20;12.57;;;20.20;99.90;;;;;;5133097;27;20051;-76
2022/04/14 08:35:32;;;;;;;17.17;12.93;;;20.90;99.90;;;;;;5135743;27;20110;-76
2022/04/14 08:37:58;;;;;;;17.75;13.75;;;21.20;99.90;;;;;;5153990;27;20041;-76
2022/04/14 08:40:29;;;;;;;21.25;12.95;;;21.50;99.90;;;;;;5154073;27;20038;-77
2022/04/14 08:43:03;;;;;;;14.65;11.63;;;21.80;99.90;;;;;;5153797;27;20037;-77
2022/04/14 08:45:31;;;;;;;14.98;11.75;;;21.90;99.90;;;;;;5153778;27;20038;-77
2022/04/14 08:48:00;;;;;;;14.70;11.90;;;21.90;99.90;;;;;;5136622;27;20384;-76
2022/04/14 08:50:27;;;;;;;14.38;11.77;;;22.10;99.90;;;;;;5153957;27;20038;-76
2022/04/14 08:52:53;;;;;;;15.93;12.02;;;22.20;99.90;;;;;;5153870;27;20660;-76
2022/04/14 08:55:20;;;;;;;13.70;11.00;;;22.30;99.90;;;;;;5153584;27;20038;-77
2022/04/14 08:57:45;;;;;;;;;;;21.90;99.90;;;;;;5154170;27;20064;-77
2022/04/14 09:00:13;;;;;;;16.67;11.93;;;22.00;99.90;;;;;;5172808;27;19950;-77
2022/04/14 09:02:43;;;;;;;13.30;11.20;;;22.50;99.90;;;;;;5133903;27;20554;-77
2022/04/14 09:05:10;;;;;;;14.50;11.02;;;22.70;99.90;;;;;;5133264;27;20035;-76
2022/04/14 09:07:36;;;;;;;13.48;10.07;;;23.20;99.90;;;;;;5132868;27;20035;-77
2022/04/14 09:10:04;;;;;;;;;;;23.20;99.90;;;;;;5133185;27;20035;-77
2022/04/14 09:12:30;;;;;;;12.85;9.90;;;23.30;99.90;;;;;;5133096;27;20397;-77
2022/04/14 09:14:56;;;;;;;12.55;9.27;;;23.20;99.90;;;;;;5132244;27;20118;-77
2022/04/14 09:17:21;;;;;;;;;;;23.20;99.90;;;;;;5133200;27;20126;-77
2022/04/14 09:19:48;;;;;;;11.20;8.30;;;23.20;99.90;;;;;;5132611;27;20267;-77
2022/04/14 09:22:15;;;;;;;10.07;7.82;;;23.70;99.90;;;;;;5133371;27;20478;-77
2022/04/14 09:24:51;;;;;;;10.23;8.23;;;24.10;99.90;;;;;;5133007;27;20090;-77
2022/04/14 09:27:23;;;;;;;;;;;24.10;98.60;;;;;;5133185;27;20074;-76
2022/04/14 09:29:50;;;;;;;9.77;6.65;;;23.50;98.80;;;;;;5140332;27;20330;-76
2022/04/14 09:32:35;;;;;;;8.82;7.00;;;23.20;99.90;;;;;;5157504;27;20509;-77
2022/04/14 09:35:06;;;;;;;8.40;6.32;;;23.70;98.90;;;;;;5157603;27;20042;-77
2022/04/14 09:37:33;;;;;;;9.45;7.07;;;23.20;98.70;;;;;;5157858;27;20042;-76
2022/04/14 09:40:01;;;;;;;10.85;7.72;;;23.40;99.60;;;;;;5139978;27;20040;-77
2022/04/14 09:42:33;;;;;;;8.65;5.68;;;23.70;99.00;;;;;;5157547;27;20038;-76
2022/04/14 09:45:20;;;;;;;8.32;5.82;;;23.20;98.40;;;;;;5147320;27;20474;-77
2022/04/14 09:47:53;;;;;;;6.93;6.10;;;22.60;98.80;;;;;;5136579;27;20070;-76
2022/04/14 09:50:40;;;;;;;9.65;6.10;;;21.90;99.90;;;;;;5136392;27;20080;-76
2022/04/14 09:53:12;;;;;;;8.63;5.95;;;21.90;99.90;;;;;;5136623;27;20517;-76
2022/04/14 09:55:50;;;;;;;8.75;6.18;;;22.10;99.90;;;;;;5118988;27;20035;-77
2022/04/14 09:58:20;;;;;;;8.50;5.47;;;22.50;99.90;;;;;;5136684;27;20070;-76
2022/04/14 10:00:48;;;;;;;7.43;5.18;;;23.00;98.70;;;;;;5136795;27;20038;-76
2022/04/14 10:03:18;;;;;;;7.93;5.05;;;22.90;99.00;;;;;;5136687;27;20034;-76
2022/04/14 10:05:46;;;;;;;9.38;5.80;;;22.10;99.90;;;;;;5136445;27;20034;-76
2022/04/14 10:08:13;;;;;;;7.10;5.30;;;21.90;99.90;;;;;;5135845;27;20070;-76
2022/04/14 10:10:41;;;;;;;10.07;6.68;;;22.40;99.70;;;;;;5136219;27;20045;-76
2022/04/14 10:13:09;;;;;;;6.78;5.25;;;22.50;99.40;;;;;;5135985;27;20042;-77
2022/04/14 10:15:43;;;;;;;7.25;5.78;;;23.40;99.30;;;;;;5136142;27;20385;-77
2022/04/14 10:18:14;;;;;;;8.40;5.20;;;23.40;99.20;;;;;;5118808;27;20042;-77
2022/04/14 10:20:44;;;;;;;7.75;5.45;;;23.50;99.30;;;;;;5138827;27;20486;-76
2022/04/14 10:23:12;;;;;;;7.45;4.85;;;23.70;99.10;;;;;;5156476;27;20506;-77
2022/04/14 10:25:39;;;;;;;9.82;4.70;;;23.80;98.60;;;;;;5156394;27;20042;-77
2022/04/14 10:28:12;;;;;;;9.88;5.22;;;23.70;97.20;;;;;;5156680;27;20468;-77
2022/04/14 10:30:38;;;;;;;7.00;4.72;;;24.20;97.30;;;;;;5156350;27;20050;-76
2022/04/14 10:33:04;;;;;;;8.88;5.20;;;24.70;96.30;;;;;;5118791;27;20084;-77
2022/04/14 10:35:32;;;;;;;7.82;5.15;;;25.10;95.80;;;;;;5132572;27;20372;-77
2022/04/14 10:38:22;;;;;;;8.35;5.40;;;25.10;95.30;;;;;;5132403;27;20494;-77
2022/04/14 10:40:53;;;;;;;8.65;5.07;;;24.80;95.60;;;;;;5132705;27;20528;-77
2022/04/14 10:43:22;;;;;;;7.60;5.20;;;25.00;96.40;;;;;;5131067;27;20047;-76
2022/04/14 10:45:56;;;;;;;4.22;3.00;;;24.60;95.80;;;;;;5132233;27;20047;-78
2022/04/14 10:48:32;;;;;;;4.43;2.80;;;23.60;94.80;;;;;;5114988;27;20095;-77
2022/04/14 10:51:24;;;;;;;5.88;2.65;;;23.00;95.20;;;;;;5131781;27;20035;-77
2022/04/14 10:53:56;;;;;;;4.47;2.28;;;21.90;96.70;;;;;;5115401;27;20031;-77
2022/04/14 10:56:34;;;;;;;3.80;2.72;;;21.60;96.80;;;;;;5132018;27;20525;-77
2022/04/14 10:59:03;;;;;;;5.57;2.53;;;22.30;96.90;;;;;;5131607;27;20431;-77
2022/04/14 11:01:48;;;;;;;3.45;1.85;;;23.10;96.30;;;;;;5131862;27;20134;-77
2022/04/14 11:04:23;;;;;;;2.97;2.00;;;23.40;96.20;;;;;;5114432;27;20509;-76
2022/04/14 11:06:54;;;;;;;4.88;2.10;;;23.80;94.80;;;;;;5131690;27;20104;-77
2022/04/14 11:09:38;;;;;;;4.93;1.98;;;24.20;95.10;;;;;;5131812;27;20511;-77
2022/04/14 11:12:32;;;;;;;2.42;1.42;;;23.70;94.30;;;;;;5130939;27;20053;-77
2022/04/14 11:15:03;;;;;;;5.32;1.45;;;23.40;94.00;;;;;;5096721;27;20495;-76
2022/04/14 11:17:37;;;;;;;3.97;1.33;;;22.90;94.60;;;;;;5131205;27;20114;-76
2022/04/14 11:20:23;;;;;;;3.92;1.30;;;22.70;95.40;;;;;;5131161;27;20406;-77
2022/04/14 11:23:12;;;;;;;2.95;1.42;;;22.50;94.60;;;;;;5131375;27;20035;-76
2022/04/14 11:25:44;;;;;;;3.50;1.58;;;22.70;94.70;;;;;;5113776;27;20117;-76
2022/04/14 11:28:15;;;;;;;5.50;2.03;;;23.20;94.80;;;;;;5130808;27;20031;-76
2022/04/14 11:30:41;;;;;;;4.28;2.22;;;23.50;94.90;;;;;;5130843;27;20066;-77
2022/04/14 11:33:20;;;;;;;4.45;2.33;;;23.80;94.10;;;;;;5130358;27;20046;-77
2022/04/14 11:35:47;;;;;;;4.90;2.45;;;23.70;93.90;;;;;;5130795;27;20032;-77
2022/04/14 11:38:53;;;;;;;6.05;2.65;;;23.90;94.00;;;;;;5113314;27;20042;-77
2022/04/14 11:41:31;;;;;;;3.50;1.80;;;24.00;94.60;;;;;;5130500;27;20095;-77
2022/04/14 11:43:57;;;;;;;5.20;2.03;;;23.80;93.30;;;;;;5113371;27;20035;-77
2022/04/14 11:46:23;;;;;;;6.45;2.88;;;24.00;93.60;;;;;;5131166;27;20367;-75
2022/04/14 11:48:49;;;;;;;4.45;2.17;;;23.70;93.60;;;;;;5113987;27;20420;-77
2022/04/14 11:51:19;;;;;;;5.53;2.92;;;24.00;93.10;;;;;;5130050;27;20058;-77
2022/04/14 11:53:45;;;;;;;5.55;2.95;;;23.70;94.20;;;;;;5113405;27;20054;-77
2022/04/14 11:56:18;;;;;;;5.15;2.00;;;23.60;94.80;;;;;;5130178;27;20039;-77
2022/04/14 11:58:45;;;;;;;6.32;3.45;;;23.90;93.80;;;;;;5130338;27;20063;-77
2022/04/14 12:01:12;;;;;;;5.90;3.45;;;23.70;94.90;;;;;;5130088;27;20138;-77
2022/04/14 12:03:38;;;;;;;4.95;3.25;;;23.90;94.50;;;;;;5130494;27;20479;-77
2022/04/14 12:06:10;;;;;;;5.30;3.10;;;23.70;94.40;;;;;;5130073;27;20039;-77
2022/04/14 12:08:36;;;;;;;6.00;3.60;;;23.60;94.90;;;;;;5130232;27;20129;-76
2022/04/14 12:11:03;;;;;;;7.18;3.75;;;23.30;94.50;;;;;;5129902;27;20027;-76
2022/04/14 12:13:35;;;;;;;6.13;3.47;;;23.20;95.20;;;;;;5130072;27;20038;-77
2022/04/14 12:16:06;;;;;;;5.78;3.67;;;22.70;95.30;;;;;;5112658;27;20042;-77
2022/04/14 12:18:33;;;;;;;6.63;3.35;;;22.80;96.10;;;;;;5112917;27;20041;-77
2022/04/14 12:20:59;;;;;;;5.93;3.35;;;22.90;95.90;;;;;;5130073;27;20386;-77
2022/04/14 12:23:24;;;;;;;;;;;22.40;96.20;;;;;;5130407;27;20047;-77
2022/04/14 12:25:52;;;;;;;6.60;3.35;;;22.20;96.50;;;;;;5130298;27;19915;-76
2022/04/14 12:28:18;;;;;;;7.30;3.03;;;22.30;96.90;;;;;;5129498;27;20047;-76
2022/04/14 12:30:44;;;;;;;6.82;3.13;;;22.30;97.10;;;;;;5112546;27;20191;-77
2022/04/14 12:33:10;;;;;;;;;;;22.30;96.60;;;;;;5162153;27;20144;-77
2022/04/14 12:35:39;;;;;;;4.47;2.40;;;22.20;96.20;;;;;;5154289;27;19958;-76
2022/04/14 12:38:24;;;;;;;4.80;2.13;;;22.00;96.80;;;;;;5153211;27;20481;-76
2022/04/14 12:40:59;;;;;;;5.75;2.22;;;21.60;97.20;;;;;;5153934;27;20042;-77
2022/04/14 12:43:34;;;;;;;4.13;2.40;;;21.40;97.00;;;;;;5136326;27;20065;-76
2022/04/14 12:46:01;;;;;;;4.50;2.22;;;21.30;97.90;;;;;;5136370;27;20042;-76